Impacts METAR Board INFO
IDs:

KMEM - Memphis Intl, TN, US

Updated at: 0121 UTC 13 Dec 2017
Potential Impact None Slight Moderate High
Time12/13Z 12/14Z 12/15Z 12/16Z 12/17Z 12/18Z 12/19Z 12/20Z 12/21Z 12/22Z 12/23Z 13/00Z 13/01Z
VIS10 10 10 10 10 10 10 10 10 10 10 10 10
CIG-- -- -- -- -- -- -- -- -- -- -- -- --
CoverSCTFEWCLRFEWCLRCLRCLRCLRFEWFEWFEWCLRCLR
FltCatVFRVFRVFRVFRVFRVFRVFRVFRVFRVFRVFRVFRVFR
WX--------------------------
WDir300320340330320350330330340330300320290
WSpd8 10 13 12 13 13 10 9 10 10 11 7 4
WGst-- -- 25 23 19 20 -- 16 -- -- -- -- --
Raw hourly METARs
KMEM 121254Z 30008KT 10SM SCT046 06/00 A3014 RMK AO2 SLP206 T00560000
KMEM 121354Z 32010KT 10SM FEW047 06/00 A3016 RMK AO2 SLP214 T00610000
KMEM 121454Z 34013G25KT 10SM CLR 07/M01 A3019 RMK AO2 SLP222 T00721011 51028
KMEM 121554Z 33012G23KT 10SM FEW050 08/M02 A3022 RMK AO2 SLP233 T00781017
KMEM 121654Z 32013G19KT 10SM CLR 08/M02 A3022 RMK AO2 SLP232 T00831022
KMEM 121754Z 35013G20KT 10SM CLR 09/M03 A3020 RMK AO2 SLP225 T00891028 10089 20050 50003
KMEM 121854Z 33010KT 10SM CLR 09/M03 A3018 RMK AO2 SLP219 T00941028
KMEM 121954Z 33009G16KT 10SM CLR 09/M04 A3016 RMK AO2 SLP214 T00891039
KMEM 122054Z 34010KT 10SM FEW250 09/M05 A3017 RMK AO2 SLP217 T00891050 55008
KMEM 122154Z 33010KT 10SM FEW250 08/M05 A3016 RMK AO2 SLP213 T00781050
KMEM 122254Z 30011KT 10SM FEW250 06/M06 A3015 RMK AO2 SLP211 T00561056
KMEM 122354Z 32007KT 10SM CLR 04/M06 A3016 RMK AO2 SLP215 T00391061 10094 20039 55003
KMEM 130054Z 29004KT 10SM CLR 03/M06 A3017 RMK AO2 SLP216 T00331061